createdAt,value
2023-10-30T00:01:04.680Z,29.40
2023-10-30T00:06:08.249Z,22.80
2023-10-30T00:11:10.413Z,27.80
2023-10-30T00:16:12.788Z,29.60
2023-10-30T00:21:15.308Z,23.60
2023-10-30T00:26:17.809Z,24.30
2023-10-30T00:31:21.445Z,21.60
2023-10-30T00:36:23.996Z,24.80
2023-10-30T00:41:26.936Z,22.80
2023-10-30T00:47:04.359Z,23.00
2023-10-30T00:52:06.741Z,23.70
2023-10-30T00:57:08.846Z,26.00
2023-10-30T01:02:10.825Z,19.70
2023-10-30T01:07:13.243Z,26.50
2023-10-30T01:13:10.084Z,24.80
2023-10-30T01:18:13.206Z,24.80
2023-10-30T01:23:18.380Z,21.50
2023-10-30T01:28:20.505Z,21.40
2023-10-30T01:33:24.531Z,17.30
2023-10-30T01:38:26.985Z,22.50
2023-10-30T01:43:33.712Z,18.00
2023-10-30T01:48:36.648Z,16.30
2023-10-30T01:53:39.742Z,23.50
2023-10-30T01:58:42.326Z,20.20
2023-10-30T02:03:44.648Z,16.20
2023-10-30T02:08:46.888Z,18.30
2023-10-30T02:13:57.464Z,19.90
2023-10-30T02:18:59.568Z,16.70
2023-10-30T02:24:12.337Z,20.10
2023-10-30T02:29:34.896Z,20.00
2023-10-30T02:34:36.898Z,18.60
2023-10-30T02:39:39.158Z,21.10
2023-10-30T02:44:42.039Z,19.60
2023-10-30T02:49:44.844Z,21.30
2023-10-30T02:54:47.145Z,19.40
2023-10-30T02:59:49.456Z,24.20
2023-10-30T03:04:52.133Z,23.60
2023-10-30T03:09:54.296Z,16.90
2023-10-30T03:14:56.426Z,22.40
2023-10-30T03:19:59.824Z,18.30
2023-10-30T03:25:02.090Z,17.90
2023-10-30T03:30:05.040Z,25.70
2023-10-30T03:35:08.599Z,16.40
2023-10-30T03:40:11.409Z,19.10
2023-10-30T03:45:13.834Z,20.90
2023-10-30T03:50:18.180Z,16.90
2023-10-30T03:55:20.351Z,21.50
2023-10-30T04:00:22.432Z,25.10
2023-10-30T04:05:24.627Z,22.30
2023-10-30T04:10:27.145Z,24.10
2023-10-30T04:15:29.430Z,25.10
2023-10-30T04:20:31.742Z,26.60
2023-10-30T04:25:33.959Z,23.60
2023-10-30T04:30:36.921Z,32.70
2023-10-30T04:35:39.594Z,17.80
2023-10-30T04:40:42.252Z,17.50
2023-10-30T04:45:44.395Z,20.70
2023-10-30T04:50:46.760Z,22.20
2023-10-30T04:55:52.811Z,24.90
2023-10-30T05:00:55.072Z,23.90
2023-10-30T05:06:17.533Z,21.30
2023-10-30T05:11:19.917Z,25.10
2023-10-30T05:16:22.735Z,21.60
2023-10-30T05:21:25.122Z,25.70
2023-10-30T05:26:27.800Z,19.50
2023-10-30T05:31:30.158Z,21.30
2023-10-30T05:36:32.633Z,23.00
2023-10-30T05:41:35.108Z,14.80
2023-10-30T05:46:37.501Z,20.00
2023-10-30T05:51:39.754Z,24.00
2023-10-30T05:56:41.928Z,23.40
2023-10-30T06:01:44.520Z,18.40
2023-10-30T06:06:47.540Z,16.60
2023-10-30T06:11:50.289Z,18.60
2023-10-30T06:16:52.327Z,20.40
2023-10-30T06:21:55.040Z,19.20
2023-10-30T06:26:57.351Z,18.10
2023-10-30T06:31:59.907Z,15.20
2023-10-30T06:37:03.097Z,15.60
2023-10-30T06:42:06.526Z,14.50
2023-10-30T06:47:08.591Z,15.70
2023-10-30T06:52:11.115Z,14.10
2023-10-30T06:57:13.528Z,12.30
2023-10-30T07:02:15.728Z,14.80
2023-10-30T07:07:17.952Z,16.10
2023-10-30T07:12:20.232Z,17.20
2023-10-30T07:17:22.462Z,11.20
2023-10-30T07:22:25.299Z,15.30
2023-10-30T07:27:27.766Z,16.00
2023-10-30T07:32:30.396Z,12.30
2023-10-30T07:37:34.809Z,14.30
2023-10-30T07:42:38.993Z,18.80
2023-10-30T07:47:44.226Z,11.90
2023-10-30T07:52:47.300Z,13.10
2023-10-30T07:57:49.592Z,12.80
2023-10-30T08:02:52.115Z,15.90
2023-10-30T08:07:54.463Z,17.80
2023-10-30T08:12:56.899Z,13.80
2023-10-30T08:17:59.195Z,16.10
2023-10-30T08:23:01.757Z,10.90
2023-10-30T08:28:04.257Z,13.20
2023-10-30T08:33:06.558Z,16.10
2023-10-30T08:38:08.769Z,16.60
2023-10-30T08:43:10.992Z,16.40
2023-10-30T08:48:19.426Z,14.80
2023-10-30T08:53:22.672Z,12.20
2023-10-30T08:58:24.932Z,8.20
2023-10-30T09:03:27.109Z,7.10
2023-10-30T09:08:29.264Z,13.90
2023-10-30T09:13:32.409Z,14.10
2023-10-30T09:18:34.511Z,16.80
2023-10-30T09:23:36.691Z,17.90
2023-10-30T09:28:39.074Z,13.10
2023-10-30T09:33:41.392Z,18.30
2023-10-30T09:38:43.795Z,16.10
2023-10-30T09:43:53.305Z,14.40
2023-10-30T09:48:57.640Z,15.20
2023-10-30T09:54:01.592Z,11.40
2023-10-30T09:59:04.372Z,14.70
2023-10-30T10:04:06.854Z,13.50
2023-10-30T10:09:09.094Z,16.50
2023-10-30T10:14:12.954Z,14.30
2023-10-30T10:19:22.296Z,11.20
2023-10-30T10:24:29.629Z,11.90
2023-10-30T10:29:33.554Z,9.80
2023-10-30T10:34:35.972Z,10.10
2023-10-30T10:39:58.549Z,16.90
2023-10-30T10:45:00.914Z,15.50
2023-10-30T10:50:04.538Z,9.70
2023-10-30T10:55:07.389Z,10.50
2023-10-30T11:00:13.523Z,17.10
2023-10-30T11:05:17.020Z,14.00
2023-10-30T11:10:26.076Z,14.50
2023-10-30T11:15:34.194Z,19.40
2023-10-30T11:20:36.213Z,13.00
2023-10-30T11:25:40.333Z,14.90
2023-10-30T11:30:44.364Z,13.90
2023-10-30T11:35:47.930Z,10.00
2023-10-30T11:41:05.821Z,12.70
2023-10-30T11:46:08.042Z,17.00
2023-10-30T11:51:10.593Z,9.00
2023-10-30T11:56:14.829Z,7.50
2023-10-30T12:01:18.073Z,10.20
2023-10-30T12:06:20.418Z,10.50
2023-10-30T12:11:23.953Z,11.30
2023-10-30T12:16:27.657Z,6.90
2023-10-30T12:21:31.510Z,17.30
2023-10-30T12:26:40.607Z,12.40
2023-10-30T12:31:43.208Z,6.20
2023-10-30T12:36:45.982Z,10.10
2023-10-30T12:41:55.379Z,7.80
2023-10-30T12:46:57.778Z,9.40
2023-10-30T12:52:00.168Z,13.70
2023-10-30T12:57:02.544Z,7.60
2023-10-30T13:02:07.178Z,11.00
2023-10-30T13:07:09.635Z,12.00
2023-10-30T13:12:11.731Z,11.70
2023-10-30T13:17:14.048Z,12.60
2023-10-30T13:22:16.350Z,12.20
2023-10-30T13:27:18.735Z,15.30
2023-10-30T13:32:21.411Z,8.20
2023-10-30T13:37:23.571Z,16.90
2023-10-30T13:42:25.605Z,13.80
2023-10-30T13:47:27.764Z,17.80
2023-10-30T13:52:29.802Z,14.40
2023-10-30T13:57:32.111Z,15.20
2023-10-30T14:02:34.246Z,12.70
2023-10-30T14:07:37.082Z,10.80
2023-10-30T14:12:39.178Z,19.20
2023-10-30T14:17:41.390Z,16.10
2023-10-30T14:22:43.434Z,14.00
2023-10-30T14:27:45.695Z,11.50
2023-10-30T14:32:48.320Z,18.70
2023-10-30T14:37:50.432Z,24.20
2023-10-30T14:42:52.752Z,16.70
2023-10-30T14:47:55.417Z,16.50
2023-10-30T14:52:57.683Z,20.00
2023-10-30T14:58:00.049Z,20.20
2023-10-30T15:03:04.883Z,13.10
2023-10-30T15:08:06.931Z,12.40
2023-10-30T15:13:09.583Z,11.30
2023-10-30T15:18:11.897Z,13.00
2023-10-30T15:23:14.332Z,18.30
2023-10-30T15:28:16.404Z,18.60
2023-10-30T15:33:19.011Z,25.10
2023-10-30T15:38:21.814Z,21.20
2023-10-30T15:43:23.885Z,23.00
2023-10-30T15:48:25.957Z,21.00
2023-10-30T16:03:40.367Z,22.20
2023-10-30T16:13:48.521Z,18.20
2023-10-30T16:19:15.141Z,21.70
2023-10-30T16:24:16.236Z,16.70
2023-10-30T16:29:18.493Z,23.80
2023-10-30T16:34:20.620Z,23.00
2023-10-30T16:39:22.728Z,22.60
2023-10-30T16:44:25.284Z,28.50
2023-10-30T16:49:27.831Z,26.10
2023-10-30T16:54:29.970Z,22.90
2023-10-30T16:59:32.301Z,25.90
2023-10-30T17:04:34.574Z,27.40
2023-10-30T17:09:36.660Z,30.80
2023-10-30T17:14:39.179Z,26.40
2023-10-30T17:19:41.682Z,33.80
2023-10-30T17:24:43.685Z,25.60
2023-10-30T17:29:47.591Z,35.00
2023-10-30T17:34:51.019Z,35.10
2023-10-30T17:39:55.525Z,21.50
2023-10-30T17:45:04.317Z,23.20
2023-10-30T17:55:31.600Z,23.40
2023-10-30T18:00:33.817Z,29.70
2023-10-30T18:05:35.912Z,27.30
2023-10-30T18:10:38.230Z,32.00
2023-10-30T18:15:40.784Z,26.60
2023-10-30T18:20:44.630Z,32.80
2023-10-30T18:25:46.785Z,26.00
2023-10-30T18:30:51.120Z,25.80
2023-10-30T18:35:53.333Z,27.20
2023-10-30T18:41:02.451Z,28.00
2023-10-30T18:46:04.996Z,33.70
2023-10-30T18:51:07.206Z,32.50
2023-10-30T18:56:14.682Z,28.60
2023-10-30T19:01:17.438Z,25.60
2023-10-30T19:06:19.852Z,23.20
2023-10-30T19:11:22.308Z,25.10
2023-10-30T19:16:24.591Z,22.90
2023-10-30T19:21:27.061Z,24.30
2023-10-30T19:26:29.607Z,30.00
2023-10-30T19:31:32.003Z,32.80
2023-10-30T19:36:34.757Z,34.60
2023-10-30T19:41:37.242Z,38.70
2023-10-30T19:46:41.371Z,31.80
2023-10-30T19:51:52.399Z,37.10
2023-10-30T19:56:59.157Z,34.30
2023-10-30T20:02:01.876Z,38.20
2023-10-30T20:07:04.815Z,40.50
2023-10-30T20:12:07.371Z,41.10
2023-10-30T20:17:11.039Z,39.30
2023-10-30T20:22:13.260Z,41.70
2023-10-30T20:27:15.712Z,42.90
2023-10-30T20:32:19.891Z,41.90
2023-10-30T20:37:21.942Z,51.80
2023-10-30T20:42:25.008Z,52.80
2023-10-30T20:48:26.847Z,62.00
2023-10-30T20:54:48.664Z,55.60
2023-10-30T21:01:10.575Z,49.60
2023-10-30T21:06:32.746Z,48.00
2023-10-30T21:11:34.896Z,38.50
2023-10-30T21:16:37.650Z,36.80
2023-10-30T21:21:39.823Z,26.40
2023-10-30T21:26:41.901Z,22.00
2023-10-30T21:31:44.089Z,22.60
2023-10-30T21:36:46.840Z,20.40
2023-10-30T21:41:49.247Z,23.00
2023-10-30T21:46:51.557Z,25.30
2023-10-30T21:51:53.668Z,20.30
2023-10-30T21:56:55.744Z,18.80
2023-10-30T22:01:57.959Z,18.10
2023-10-30T22:07:03.876Z,16.50
2023-10-30T22:12:06.222Z,17.30
2023-10-30T22:17:08.510Z,15.70
2023-10-30T22:22:10.699Z,12.40
2023-10-30T22:27:12.713Z,19.50
2023-10-30T22:32:14.749Z,21.30
2023-10-30T22:37:17.561Z,21.90
2023-10-30T22:42:20.023Z,20.50
2023-10-30T22:48:21.899Z,20.50
2023-10-30T22:53:44.031Z,21.20
2023-10-30T22:59:45.815Z,15.40
2023-10-30T23:05:08.514Z,20.00
2023-10-30T23:10:10.753Z,13.10
2023-10-30T23:15:12.943Z,10.70
2023-10-30T23:21:14.737Z,6.80
2023-10-30T23:26:36.708Z,10.70
2023-10-30T23:31:39.173Z,11.40
2023-10-30T23:36:41.240Z,14.90
2023-10-30T23:41:43.677Z,7.60
2023-10-30T23:46:47.017Z,11.80
2023-10-30T23:51:49.235Z,8.90
2023-10-30T23:57:34.429Z,9.80
